createdAt,value
2019-05-12T00:01:54.002Z,13.68
2019-05-12T00:06:58.530Z,13.40
2019-05-12T00:12:01.813Z,13.36
2019-05-12T00:17:05.157Z,13.62
2019-05-12T00:22:08.242Z,13.66
2019-05-12T00:27:14.946Z,13.65
2019-05-12T00:32:17.945Z,13.11
2019-05-12T00:37:21.236Z,13.31
2019-05-12T00:42:24.204Z,13.16
2019-05-12T00:47:28.024Z,13.22
2019-05-12T00:52:31.142Z,13.07
2019-05-12T00:57:34.316Z,13.19
2019-05-12T01:02:37.972Z,13.15
2019-05-12T01:07:41.136Z,12.91
2019-05-12T01:12:44.255Z,12.84
2019-05-12T01:17:47.773Z,12.78
2019-05-12T01:22:51.023Z,12.57
2019-05-12T01:27:53.950Z,12.73
2019-05-12T01:32:58.106Z,12.86
2019-05-12T01:38:01.624Z,12.96
2019-05-12T01:43:04.784Z,13.07
2019-05-12T01:48:08.981Z,12.90
2019-05-12T01:53:12.978Z,13.12
2019-05-12T01:58:19.047Z,12.97
2019-05-12T02:03:21.102Z,13.05
2019-05-12T02:08:33.069Z,13.17
2019-05-12T02:13:38.014Z,13.24
2019-05-12T02:18:41.005Z,13.13
2019-05-12T02:23:44.038Z,13.08
2019-05-12T02:28:48.074Z,13.15
2019-05-12T02:33:51.230Z,13.19
2019-05-12T02:38:55.951Z,13.19
2019-05-12T02:43:59.174Z,13.17
2019-05-12T02:49:04.875Z,13.12
2019-05-12T02:54:07.512Z,13.09
2019-05-12T02:59:11.699Z,13.07
2019-05-12T03:04:17.234Z,12.98
2019-05-12T03:09:24.343Z,12.93
2019-05-12T03:14:27.038Z,13.04
2019-05-12T03:19:30.007Z,13.10
2019-05-12T03:24:34.208Z,13.04
2019-05-12T03:29:37.363Z,12.93
2019-05-12T03:34:40.822Z,12.96
2019-05-12T03:39:44.734Z,12.76
2019-05-12T03:44:47.972Z,12.76
2019-05-12T03:49:54.234Z,12.39
2019-05-12T03:54:58.095Z,12.28
2019-05-12T04:00:01.052Z,12.70
2019-05-12T04:05:05.622Z,12.99
2019-05-12T04:10:09.244Z,13.13
2019-05-12T04:15:15.197Z,13.12
2019-05-12T04:20:17.606Z,13.13
2019-05-12T04:25:20.546Z,13.13
2019-05-12T04:30:25.179Z,13.15
2019-05-12T04:35:28.495Z,13.23
2019-05-12T04:40:31.553Z,13.19
2019-05-12T04:45:35.139Z,13.35
2019-05-12T04:50:38.400Z,13.46
2019-05-12T04:55:44.229Z,13.22
2019-05-12T05:00:46.544Z,13.32
2019-05-12T05:05:49.635Z,13.53
2019-05-12T05:10:54.775Z,13.61
2019-05-12T05:15:57.542Z,13.46
2019-05-12T05:21:00.466Z,13.28
2019-05-12T05:26:03.455Z,13.50
2019-05-12T05:31:06.483Z,13.55
2019-05-12T05:36:15.137Z,13.61
2019-05-12T05:41:14.343Z,13.81
2019-05-12T05:46:17.472Z,13.92
2019-05-12T05:51:20.626Z,14.17
2019-05-12T05:56:38.389Z,14.39
2019-05-12T06:01:28.494Z,14.38
2019-05-12T06:06:31.554Z,14.35
2019-05-12T06:11:36.471Z,14.43
2019-05-12T06:16:39.480Z,14.49
2019-05-12T06:21:43.990Z,14.56
2019-05-12T06:26:57.662Z,14.75
2019-05-12T06:31:54.248Z,15.03
2019-05-12T06:37:03.049Z,15.27
2019-05-12T06:42:12.362Z,15.65
2019-05-12T06:47:08.452Z,15.76
2019-05-12T06:52:11.589Z,15.97
2019-05-12T06:57:24.045Z,16.16
2019-05-12T07:02:19.441Z,16.46
2019-05-12T07:07:25.554Z,16.34
2019-05-12T07:12:33.562Z,16.53
2019-05-12T07:17:49.239Z,16.71
2019-05-12T07:22:48.497Z,16.78
2019-05-12T07:27:58.411Z,16.79
2019-05-12T07:33:01.377Z,16.65
2019-05-12T07:38:05.205Z,16.57
2019-05-12T07:43:16.275Z,16.51
2019-05-12T07:48:16.051Z,17.01
2019-05-12T07:53:19.173Z,16.97
2019-05-12T07:58:23.986Z,17.57
2019-05-12T08:03:27.087Z,17.90
2019-05-12T08:08:33.850Z,18.21
2019-05-12T08:13:37.821Z,18.48
2019-05-12T08:18:41.123Z,18.30
2019-05-12T08:23:44.691Z,18.45
2019-05-12T08:28:47.723Z,18.17
2019-05-12T08:33:50.705Z,18.32
2019-05-12T08:38:53.819Z,18.68
2019-05-12T08:43:58.469Z,19.23
2019-05-12T08:49:03.017Z,19.22
2019-05-12T08:54:08.106Z,19.61
2019-05-12T08:59:17.571Z,19.23
2019-05-12T09:04:18.375Z,18.49
2019-05-12T09:09:23.255Z,18.61
2019-05-12T09:14:26.649Z,18.43
2019-05-12T09:19:29.615Z,18.45
2019-05-12T09:24:33.755Z,18.37
2019-05-12T09:29:37.084Z,18.50
2019-05-12T09:34:46.882Z,18.65
2019-05-12T09:39:47.332Z,18.78
2019-05-12T09:44:50.390Z,18.54
2019-05-12T09:49:53.618Z,19.11
2019-05-12T09:54:56.706Z,18.98
2019-05-12T09:59:59.806Z,19.30
2019-05-12T10:05:03.917Z,19.32
2019-05-12T10:10:07.724Z,19.52
2019-05-12T10:15:13.490Z,19.93
2019-05-12T10:20:16.899Z,20.04
2019-05-12T10:25:23.198Z,19.96
2019-05-12T10:30:25.245Z,19.59
2019-05-12T10:35:28.467Z,19.19
2019-05-12T10:40:33.621Z,19.13
2019-05-12T10:45:36.568Z,19.23
2019-05-12T10:50:39.795Z,19.07
2019-05-12T10:55:44.052Z,19.45
2019-05-12T11:00:47.510Z,19.38
2019-05-12T11:05:56.673Z,19.96
2019-05-12T11:11:01.208Z,19.63
2019-05-12T11:16:00.945Z,19.99
2019-05-12T11:21:04.001Z,20.15
2019-05-12T11:26:07.036Z,20.12
2019-05-12T11:31:10.454Z,19.99
2019-05-12T11:36:13.641Z,19.18
2019-05-12T11:41:20.282Z,19.78
2019-05-12T11:46:23.645Z,19.35
2019-05-12T11:51:30.253Z,18.59
2019-05-12T11:56:33.644Z,18.74
2019-05-12T12:01:39.631Z,18.07
2019-05-12T12:06:43.703Z,17.75
2019-05-12T12:11:46.624Z,17.45
2019-05-12T12:16:50.483Z,17.94
2019-05-12T12:21:54.580Z,17.69
2019-05-12T12:26:57.729Z,18.16
2019-05-12T12:32:00.679Z,18.66
2019-05-12T12:37:03.672Z,17.52
2019-05-12T12:42:06.778Z,17.49
2019-05-12T12:47:09.728Z,16.94
2019-05-12T12:52:13.745Z,16.42
2019-05-12T12:57:19.129Z,15.79
2019-05-12T13:02:24.503Z,15.30
2019-05-12T13:07:27.258Z,15.12
2019-05-12T13:12:33.855Z,15.04
2019-05-12T13:17:41.547Z,14.77
2019-05-12T13:22:40.216Z,14.66
2019-05-12T13:27:43.196Z,14.23
2019-05-12T13:32:46.234Z,14.07
2019-05-12T13:37:50.410Z,13.86
2019-05-12T13:42:54.552Z,13.81
2019-05-12T13:47:57.620Z,13.40
2019-05-12T13:53:01.290Z,13.53
2019-05-12T13:58:05.630Z,13.28
2019-05-12T14:03:09.820Z,12.86
2019-05-12T14:08:14.677Z,12.45
2019-05-12T14:13:18.070Z,12.03
2019-05-12T14:18:21.135Z,11.72
2019-05-12T14:23:24.124Z,11.49
2019-05-12T14:28:27.514Z,11.05
2019-05-12T14:33:37.461Z,11.24
2019-05-12T14:38:36.031Z,10.92
2019-05-12T14:43:39.399Z,10.83
2019-05-12T14:48:48.418Z,10.31
2019-05-12T14:53:48.120Z,10.08
2019-05-12T14:58:56.453Z,9.87
2019-05-12T15:03:56.371Z,9.71
2019-05-12T15:08:59.443Z,9.72
2019-05-12T15:14:03.170Z,9.45
2019-05-12T15:19:09.438Z,9.60
2019-05-12T15:24:15.508Z,9.50
2019-05-12T15:29:19.719Z,9.50
2019-05-12T15:34:23.613Z,9.50
2019-05-12T15:39:26.635Z,9.59
2019-05-12T15:44:32.320Z,9.57
2019-05-12T15:49:34.522Z,9.70
2019-05-12T15:54:45.846Z,9.65
2019-05-12T15:59:43.499Z,9.65
2019-05-12T16:04:48.611Z,9.71
2019-05-12T16:09:51.680Z,9.70
2019-05-12T16:14:54.745Z,9.68
2019-05-12T16:19:57.713Z,9.65
2019-05-12T16:25:00.753Z,9.66
2019-05-12T16:30:04.847Z,9.69
2019-05-12T16:35:07.955Z,9.69
2019-05-12T16:40:13.416Z,9.72
2019-05-12T16:45:15.998Z,9.75
2019-05-12T16:50:24.852Z,9.87
2019-05-12T16:55:24.409Z,9.78
2019-05-12T17:00:30.518Z,9.79
2019-05-12T17:05:33.556Z,9.74
2019-05-12T17:10:36.785Z,9.77
2019-05-12T17:15:48.865Z,9.75
2019-05-12T17:20:50.916Z,9.74
2019-05-12T17:25:54.021Z,9.66
2019-05-12T17:30:57.076Z,9.69
2019-05-12T17:36:03.127Z,9.67
2019-05-12T17:41:05.464Z,9.69
2019-05-12T17:46:11.434Z,9.69
2019-05-12T17:51:13.787Z,9.65
2019-05-12T17:56:16.963Z,9.66
2019-05-12T18:01:22.998Z,9.60
2019-05-12T18:06:26.952Z,9.60
2019-05-12T18:11:30.160Z,9.53
2019-05-12T18:16:33.951Z,9.58
2019-05-12T18:21:37.077Z,9.51
2019-05-12T18:26:40.246Z,9.51
2019-05-12T18:31:43.710Z,9.40
2019-05-12T18:36:49.021Z,9.33
2019-05-12T18:41:54.152Z,9.24
2019-05-12T18:46:57.069Z,9.21
2019-05-12T18:52:00.102Z,9.19
2019-05-12T18:57:07.224Z,8.97
2019-05-12T19:02:08.428Z,8.93
2019-05-12T19:07:11.854Z,8.84
2019-05-12T19:12:20.846Z,8.85
2019-05-12T19:17:20.903Z,8.80
2019-05-12T19:22:24.344Z,8.72
2019-05-12T19:27:27.513Z,8.74
2019-05-12T19:32:30.564Z,8.65
2019-05-12T19:37:33.969Z,8.61
2019-05-12T19:42:37.085Z,8.54
2019-05-12T19:47:40.250Z,8.44
2019-05-12T19:52:43.608Z,8.43
2019-05-12T19:57:49.960Z,8.42
2019-05-12T20:02:53.744Z,8.38
2019-05-12T20:07:56.925Z,8.39
2019-05-12T20:12:59.924Z,8.36
2019-05-12T20:18:04.273Z,8.29
2019-05-12T20:23:07.529Z,8.28
2019-05-12T20:28:11.574Z,8.31
2019-05-12T20:33:15.454Z,8.24
2019-05-12T20:38:18.454Z,8.28
2019-05-12T20:43:23.999Z,8.21
2019-05-12T20:48:30.988Z,8.25
2019-05-12T20:53:33.745Z,8.22
2019-05-12T20:58:43.053Z,8.14
2019-05-12T21:03:46.264Z,8.15
2019-05-12T21:08:53.138Z,8.16
2019-05-12T21:13:51.079Z,8.17
2019-05-12T21:19:05.903Z,8.17
2019-05-12T21:23:59.582Z,8.20
2019-05-12T21:29:04.744Z,8.18
2019-05-12T21:34:15.060Z,8.14
2019-05-12T21:39:13.949Z,8.10
2019-05-12T21:44:17.285Z,8.12
2019-05-12T21:49:20.344Z,8.11
2019-05-12T21:54:24.222Z,8.20
2019-05-12T21:59:28.915Z,8.04
2019-05-12T22:04:40.987Z,8.09
2019-05-12T22:09:41.752Z,8.07
2019-05-12T22:14:43.706Z,7.97
2019-05-12T22:19:47.435Z,8.01
2019-05-12T22:24:50.439Z,7.94
2019-05-12T22:29:53.399Z,7.91
2019-05-12T22:34:56.529Z,7.84
2019-05-12T22:39:59.597Z,7.84
2019-05-12T22:45:05.815Z,7.75
2019-05-12T22:50:08.626Z,7.72
2019-05-12T22:55:14.007Z,7.73
2019-05-12T23:00:19.220Z,7.75
2019-05-12T23:05:24.186Z,7.76
2019-05-12T23:10:27.396Z,7.72
2019-05-12T23:15:30.462Z,7.84
2019-05-12T23:20:35.676Z,7.91
2019-05-12T23:25:38.613Z,7.78
2019-05-12T23:30:43.925Z,7.87
2019-05-12T23:35:46.563Z,7.86
2019-05-12T23:40:49.586Z,7.80
2019-05-12T23:45:53.358Z,7.84
2019-05-12T23:50:56.598Z,7.90
2019-05-12T23:55:59.593Z,7.79
